Time;durP1;ratioP1;P1;durP2;ratioP2;P2;SDS_P1;SDS_P2;PMS_P1;PMS_P2;Temp;Humidity;BMP_temperature;BMP_pressure;BME280_temperature;BME280_humidity;BME280_pressure;Samples;Min_cycle;Max_cycle;Signal;HPM_P1;HPM_P2
2021/01/05 00:02:22;;;;;;;11.50;5.93;;;3.40;99.90;;;;;;5035632;28;37146;-76
2021/01/05 00:04:48;;;;;;;7.33;4.80;;;3.40;99.90;;;;;;5048606;28;37832;-75
2021/01/05 00:07:14;;;;;;;6.27;5.37;;;3.40;99.90;;;;;;5031882;28;37696;-76
2021/01/05 00:09:41;;;;;;;5.93;5.03;;;3.40;99.90;;;;;;5026156;28;38175;-76
2021/01/05 00:12:12;;;;;;;8.90;4.90;;;3.40;99.90;;;;;;5030290;28;36607;-75
2021/01/05 00:14:42;;;;;;;7.43;5.57;;;3.40;99.90;;;;;;5047804;28;38551;-75
2021/01/05 00:17:10;;;;;;;6.20;4.80;;;3.40;99.90;;;;;;5042697;28;38451;-75
2021/01/05 00:19:36;;;;;;;6.93;5.00;;;3.30;99.90;;;;;;5044450;28;37679;-76
2021/01/05 00:22:04;;;;;;;5.77;5.03;;;3.30;99.90;;;;;;5024456;28;36299;-76
2021/01/05 00:24:30;;;;;;;6.40;5.10;;;3.30;99.90;;;;;;5036645;28;38837;-76
2021/01/05 00:26:56;;;;;;;7.07;4.93;;;3.30;99.90;;;;;;5035795;28;38452;-76
2021/01/05 00:29:22;;;;;;;6.20;5.53;;;3.30;99.90;;;;;;5026541;28;37801;-76
2021/01/05 00:31:49;;;;;;;8.17;5.30;;;3.40;99.90;;;;;;5024696;28;35919;-76
2021/01/05 00:34:16;;;;;;;7.00;5.50;;;3.40;99.90;;;;;;5039933;28;38804;-76
2021/01/05 00:36:42;;;;;;;9.97;5.30;;;3.40;99.90;;;;;;5026091;28;38551;-76
2021/01/05 00:39:08;;;;;;;7.90;5.23;;;3.40;99.90;;;;;;5043633;28;39225;-76
2021/01/05 00:41:34;;;;;;;11.37;5.70;;;3.40;99.90;;;;;;5044643;28;38622;-76
2021/01/05 00:44:00;;;;;;;7.83;4.77;;;3.40;99.90;;;;;;5027952;28;38047;-76
2021/01/05 00:46:27;;;;;;;7.47;5.53;;;3.40;99.90;;;;;;5041299;28;47152;-77
2021/01/05 00:48:53;;;;;;;5.97;4.73;;;3.40;99.90;;;;;;5045569;28;37810;-76
2021/01/05 00:51:19;;;;;;;7.23;5.53;;;3.40;99.90;;;;;;5044392;28;36942;-77
2021/01/05 00:53:45;;;;;;;6.90;5.77;;;3.40;99.90;;;;;;5046265;28;38666;-76
2021/01/05 00:56:11;;;;;;;7.17;5.60;;;3.40;99.90;;;;;;5040685;28;37619;-75
2021/01/05 00:58:40;;;;;;;12.33;6.90;;;3.30;99.90;;;;;;5045785;28;38923;-76
2021/01/05 01:01:06;;;;;;;7.60;5.70;;;3.30;99.90;;;;;;5027674;28;36025;-76
2021/01/05 01:03:32;;;;;;;6.13;5.37;;;3.40;99.90;;;;;;5047215;28;39912;-76
2021/01/05 01:05:58;;;;;;;7.50;5.93;;;3.40;99.90;;;;;;5045707;28;38454;-76
2021/01/05 01:08:24;;;;;;;5.93;5.30;;;3.30;99.90;;;;;;5027276;28;37178;-76
2021/01/05 01:10:50;;;;;;;7.90;5.13;;;3.30;99.90;;;;;;5046488;28;36756;-76
2021/01/05 01:13:17;;;;;;;7.17;5.60;;;3.30;99.90;;;;;;5045815;28;41354;-76
2021/01/05 01:15:43;;;;;;;8.57;6.07;;;3.40;99.90;;;;;;5042773;28;39224;-76
2021/01/05 01:18:09;;;;;;;7.23;5.50;;;3.30;99.90;;;;;;5026548;28;37301;-76
2021/01/05 01:20:36;;;;;;;10.93;5.90;;;3.40;99.90;;;;;;5028178;28;37839;-76
2021/01/05 01:23:02;;;;;;;9.30;5.97;;;3.40;99.90;;;;;;5038985;28;39819;-76
2021/01/05 01:25:28;;;;;;;7.97;5.73;;;3.40;99.90;;;;;;5045984;28;38556;-76
2021/01/05 01:27:54;;;;;;;8.30;5.97;;;3.40;99.90;;;;;;5046088;28;37711;-76
2021/01/05 01:30:20;;;;;;;8.17;6.07;;;3.30;99.90;;;;;;5051258;28;38199;-76
2021/01/05 01:32:47;;;;;;;6.20;5.60;;;3.30;99.90;;;;;;5044814;28;38716;-76
2021/01/05 01:35:14;;;;;;;7.33;5.23;;;3.30;99.90;;;;;;5026417;28;37456;-76
2021/01/05 01:37:40;;;;;;;7.23;5.73;;;3.30;99.90;;;;;;5031462;28;37829;-76
2021/01/05 01:40:08;;;;;;;8.13;6.33;;;3.30;99.90;;;;;;5020057;28;36742;-76
2021/01/05 01:42:34;;;;;;;6.93;5.70;;;3.30;99.90;;;;;;5045763;28;39819;-76
2021/01/05 01:45:00;;;;;;;8.60;5.90;;;3.30;99.90;;;;;;5030681;28;37762;-76
2021/01/05 01:47:33;;;;;;;9.23;6.07;;;3.30;99.90;;;;;;5027315;28;38412;-76
2021/01/05 01:50:01;;;;;;;;;;;3.30;99.90;;;;;;5029892;28;36188;-76
2021/01/05 01:52:58;;;;;;;8.20;5.80;;;3.30;99.90;;;;;;5046621;28;39447;-76
2021/01/05 01:55:38;;;;;;;6.73;6.03;;;3.30;99.90;;;;;;5043653;28;38243;-76
2021/01/05 01:58:25;;;;;;;7.63;6.13;;;3.30;99.90;;;;;;5017848;28;38219;-76
2021/01/05 02:01:09;;;;;;;7.00;6.00;;;3.30;99.90;;;;;;5024554;28;37012;-76
2021/01/05 02:03:57;;;;;;;7.47;6.33;;;3.30;99.90;;;;;;5022692;28;47230;-76
2021/01/05 02:06:26;;;;;;;10.20;6.63;;;3.30;99.90;;;;;;5040287;28;40620;-77
2021/01/05 02:09:38;;;;;;;7.27;6.23;;;3.30;99.90;;;;;;5039885;28;37764;-76
2021/01/05 02:12:11;;;;;;;7.87;6.43;;;3.30;99.90;;;;;;5025976;28;47339;-76
2021/01/05 02:14:56;;;;;;;8.00;5.57;;;3.30;99.90;;;;;;5044794;28;38843;-76
2021/01/05 02:17:43;;;;;;;7.07;6.20;;;3.30;99.90;;;;;;5033320;28;38583;-77
2021/01/05 02:20:18;;;;;;;7.53;6.53;;;3.30;99.90;;;;;;5037991;28;37103;-76
2021/01/05 02:22:54;;;;;;;8.47;6.50;;;3.30;99.90;;;;;;5037231;28;35761;-76
2021/01/05 02:25:51;;;;;;;8.77;6.30;;;3.20;99.90;;;;;;5027547;28;39697;-77
2021/01/05 02:28:21;;;;;;;7.43;6.00;;;3.20;99.90;;;;;;5044957;28;38180;-76
2021/01/05 02:30:58;;;;;;;6.43;5.77;;;3.20;99.90;;;;;;5048067;28;37797;-76
2021/01/05 02:33:45;;;;;;;7.33;5.97;;;3.20;99.90;;;;;;5020731;28;37264;-76
2021/01/05 02:36:31;;;;;;;8.73;6.30;;;3.20;99.90;;;;;;5036055;28;35845;-76
2021/01/05 02:39:19;;;;;;;6.90;6.20;;;3.20;99.90;;;;;;5045243;28;38473;-76
2021/01/05 02:42:12;;;;;;;8.53;7.03;;;3.20;99.90;;;;;;5041725;28;48729;-76
2021/01/05 02:44:57;;;;;;;6.80;5.72;;;3.20;99.90;;;;;;5041262;28;48419;-75
2021/01/05 02:47:38;;;;;;;7.20;5.80;;;3.20;99.90;;;;;;5041599;28;38676;-76
2021/01/05 02:50:29;;;;;;;6.37;5.60;;;3.20;99.90;;;;;;5042749;28;39493;-76
2021/01/05 02:53:31;;;;;;;7.77;6.33;;;3.20;99.90;;;;;;5021928;28;37514;-76
2021/01/05 02:56:35;;;;;;;7.33;6.47;;;3.20;99.90;;;;;;5045961;28;48668;-75
2021/01/05 02:59:39;;;;;;;7.77;6.23;;;3.20;99.90;;;;;;5024953;28;47050;-76
2021/01/05 03:02:29;;;;;;;6.50;5.80;;;3.20;99.90;;;;;;5015498;28;47468;-76
2021/01/05 03:04:55;;;;;;;6.60;5.53;;;3.20;99.90;;;;;;5031723;28;37050;-75
2021/01/05 03:07:27;;;;;;;8.77;6.43;;;3.20;99.90;;;;;;5014849;28;36436;-76
2021/01/05 03:10:17;;;;;;;7.43;5.97;;;3.20;99.90;;;;;;5040573;28;39547;-76
2021/01/05 03:13:09;;;;;;;7.80;6.33;;;3.20;99.90;;;;;;5044696;28;47438;-76
2021/01/05 03:15:41;;;;;;;7.57;6.43;;;3.20;99.90;;;;;;5032896;28;47262;-76
2021/01/05 03:18:39;;;;;;;6.40;5.70;;;3.20;99.90;;;;;;5044475;28;36597;-75
2021/01/05 03:21:20;;;;;;;6.73;5.73;;;3.20;99.90;;;;;;5021647;28;38853;-75
2021/01/05 03:23:48;;;;;;;7.90;6.33;;;3.20;99.90;;;;;;5042982;28;38569;-76
2021/01/05 03:26:18;;;;;;;9.57;6.20;;;3.10;99.90;;;;;;5028763;28;37890;-76
2021/01/05 03:28:45;;;;;;;8.17;6.50;;;3.20;99.90;;;;;;5047468;28;38164;-76
2021/01/05 03:31:15;;;;;;;9.90;7.27;;;3.20;99.90;;;;;;5049284;28;39890;-76
2021/01/05 03:33:41;;;;;;;8.17;6.80;;;3.20;99.90;;;;;;5038758;28;38425;-75
2021/01/05 03:36:08;;;;;;;8.67;6.67;;;3.20;99.90;;;;;;5023674;28;37884;-75
2021/01/05 03:38:34;;;;;;;9.80;6.70;;;3.10;99.90;;;;;;5044195;28;37858;-75
2021/01/05 03:41:00;;;;;;;10.70;7.57;;;3.10;99.90;;;;;;5046115;28;38721;-76
2021/01/05 03:43:26;;;;;;;9.57;7.43;;;3.10;99.90;;;;;;5045693;28;38362;-76
2021/01/05 03:45:52;;;;;;;7.43;6.63;;;3.10;99.90;;;;;;5028297;28;36933;-76
2021/01/05 03:48:18;;;;;;;8.17;7.23;;;3.10;99.90;;;;;;5023251;28;35994;-75
2021/01/05 03:50:44;;;;;;;11.33;7.60;;;3.10;99.90;;;;;;5043955;28;37683;-76
2021/01/05 03:53:10;;;;;;;8.63;6.80;;;3.10;99.90;;;;;;5044796;28;38867;-76
2021/01/05 03:55:36;;;;;;;9.27;7.30;;;3.10;99.90;;;;;;5029812;28;37731;-76
2021/01/05 03:58:02;;;;;;;9.60;7.00;;;3.10;99.90;;;;;;5048140;28;37381;-76
2021/01/05 04:00:28;;;;;;;8.33;6.90;;;3.10;99.90;;;;;;5050968;28;39827;-75
2021/01/05 04:02:57;;;;;;;9.20;7.37;;;3.10;99.90;;;;;;5052689;28;39679;-75
2021/01/05 04:05:25;;;;;;;8.97;7.57;;;3.10;99.90;;;;;;5042266;28;35447;-75
2021/01/05 04:07:51;;;;;;;8.40;6.93;;;3.10;99.90;;;;;;5045550;28;38148;-76
2021/01/05 04:10:18;;;;;;;9.60;7.20;;;3.10;99.90;;;;;;5046487;28;39970;-75
2021/01/05 04:12:44;;;;;;;8.07;6.93;;;3.10;99.90;;;;;;5028515;28;38360;-75
2021/01/05 04:15:20;;;;;;;9.13;7.47;;;3.10;99.90;;;;;;5028937;28;37749;-76
2021/01/05 04:17:46;;;;;;;9.90;7.13;;;3.10;99.90;;;;;;5046410;28;37250;-75
2021/01/05 04:20:13;;;;;;;11.10;7.20;;;3.10;99.90;;;;;;5019302;28;38857;-75
2021/01/05 04:22:39;;;;;;;7.67;6.80;;;3.10;99.90;;;;;;5040785;28;38875;-75
2021/01/05 04:25:06;;;;;;;7.97;7.17;;;3.10;99.90;;;;;;5042091;28;38205;-75
2021/01/05 04:27:32;;;;;;;9.27;6.70;;;3.10;99.90;;;;;;5048059;28;37330;-76
2021/01/05 04:29:58;;;;;;;8.57;7.43;;;3.10;99.90;;;;;;5047363;28;38919;-76
2021/01/05 04:32:25;;;;;;;8.67;6.90;;;3.10;99.90;;;;;;5034823;28;37387;-76
2021/01/05 04:34:51;;;;;;;9.27;7.10;;;3.10;99.90;;;;;;5040198;28;37084;-75
2021/01/05 04:37:17;;;;;;;8.40;7.27;;;3.10;99.90;;;;;;5040158;28;37886;-75
2021/01/05 04:39:43;;;;;;;11.07;7.60;;;3.10;99.90;;;;;;5041555;28;38793;-76
2021/01/05 04:42:22;;;;;;;10.23;7.37;;;3.10;99.90;;;;;;5048472;28;38548;-76
2021/01/05 04:44:53;;;;;;;9.90;7.63;;;3.10;99.90;;;;;;5032035;28;38476;-76
2021/01/05 04:47:46;;;;;;;10.77;8.10;;;3.00;99.90;;;;;;5045480;28;36145;-75
2021/01/05 04:50:22;;;;;;;8.23;6.95;;;3.10;99.90;;;;;;5048062;28;38769;-75
2021/01/05 04:53:20;;;;;;;10.63;7.80;;;3.10;99.90;;;;;;5041534;28;38644;-75
2021/01/05 04:56:00;;;;;;;9.13;7.23;;;3.10;99.90;;;;;;5044996;28;47096;-75
2021/01/05 04:58:33;;;;;;;11.93;8.07;;;3.10;99.90;;;;;;5039906;28;47599;-76
2021/01/05 05:01:01;;;;;;;;;;;3.10;99.90;;;;;;5027838;28;39058;-76
2021/01/05 05:03:58;;;;;;;9.87;7.50;;;3.10;99.90;;;;;;5025611;28;47113;-75
2021/01/05 05:06:39;;;;;;;9.83;7.60;;;3.10;99.90;;;;;;5026607;28;38285;-75
2021/01/05 05:09:17;;;;;;;8.70;7.40;;;3.10;99.90;;;;;;5023247;28;36521;-75
2021/01/05 05:12:17;;;;;;;9.13;7.27;;;3.20;99.90;;;;;;5029934;28;37808;-76
2021/01/05 05:15:06;;;;;;;8.27;6.77;;;3.10;99.90;;;;;;5022951;28;47074;-75
2021/01/05 05:18:05;;;;;;;8.67;7.10;;;3.10;99.90;;;;;;5037047;28;47201;-75
2021/01/05 05:20:50;;;;;;;7.50;6.60;;;3.20;99.90;;;;;;5020666;28;47281;-75
2021/01/05 05:23:26;;;;;;;8.73;6.43;;;3.20;99.90;;;;;;5012558;28;38464;-76
2021/01/05 05:26:24;;;;;;;9.40;7.07;;;3.20;99.90;;;;;;5045339;28;38570;-75
2021/01/05 05:28:58;;;;;;;8.77;6.70;;;3.20;99.90;;;;;;5033414;28;47552;-76
2021/01/05 05:31:27;;;;;;;9.00;7.20;;;3.20;99.90;;;;;;5042478;28;37287;-75
2021/01/05 05:33:57;;;;;;;10.27;7.50;;;3.20;99.90;;;;;;5043257;28;39789;-75
2021/01/05 05:36:45;;;;;;;9.50;7.33;;;3.20;99.90;;;;;;5025637;28;39179;-76
2021/01/05 05:39:21;;;;;;;9.17;7.30;;;3.20;99.90;;;;;;5021483;28;38359;-76
2021/01/05 05:41:59;;;;;;;9.03;7.13;;;3.20;99.90;;;;;;5041908;28;37852;-75
2021/01/05 05:44:38;;;;;;;10.70;7.73;;;3.20;99.90;;;;;;5028089;28;37418;-75
2021/01/05 05:47:22;;;;;;;9.83;7.43;;;3.20;99.90;;;;;;5042042;28;38639;-75
2021/01/05 05:50:25;;;;;;;11.27;8.23;;;3.20;99.90;;;;;;5039685;28;38115;-76
2021/01/05 05:53:24;;;;;;;9.55;7.38;;;3.30;99.90;;;;;;5031782;28;47351;-75
2021/01/05 05:55:53;;;;;;;11.47;8.53;;;3.20;99.90;;;;;;5040781;28;48463;-75
2021/01/05 05:58:25;;;;;;;11.73;8.47;;;3.30;99.90;;;;;;5043031;28;39221;-75
2021/01/05 06:00:55;;;;;;;10.93;7.70;;;3.20;99.90;;;;;;5046147;28;38547;-75
2021/01/05 06:03:24;;;;;;;12.40;8.43;;;3.20;99.90;;;;;;5026095;28;37570;-76
2021/01/05 06:05:50;;;;;;;11.87;8.33;;;3.20;99.90;;;;;;5045182;28;38750;-75
2021/01/05 06:08:17;;;;;;;11.23;7.57;;;3.20;99.90;;;;;;5030493;28;38878;-75
2021/01/05 06:10:44;;;;;;;12.13;8.73;;;3.20;99.90;;;;;;5027576;28;36940;-75
2021/01/05 06:13:10;;;;;;;13.03;9.50;;;3.20;99.90;;;;;;5026746;28;36079;-75
2021/01/05 06:15:37;;;;;;;12.73;9.00;;;3.30;99.90;;;;;;5028034;28;38839;-75
2021/01/05 06:18:05;;;;;;;12.43;8.60;;;3.20;99.90;;;;;;5024752;28;37539;-76
2021/01/05 06:20:31;;;;;;;12.43;9.20;;;3.30;99.90;;;;;;5040419;28;37207;-75
2021/01/05 06:22:57;;;;;;;12.80;8.60;;;3.30;99.90;;;;;;5042778;28;37375;-78
2021/01/05 06:25:24;;;;;;;13.97;9.03;;;3.30;99.90;;;;;;5027048;28;37859;-75
2021/01/05 06:27:51;;;;;;;13.83;9.73;;;3.30;99.90;;;;;;5028059;28;37356;-75
2021/01/05 06:30:18;;;;;;;13.70;9.80;;;3.30;99.90;;;;;;5040966;28;37002;-75
2021/01/05 06:32:44;;;;;;;13.27;9.50;;;3.30;99.90;;;;;;5048678;28;35754;-75
2021/01/05 06:35:12;;;;;;;16.17;9.70;;;3.20;99.90;;;;;;5027095;28;39617;-75
2021/01/05 06:37:38;;;;;;;16.20;9.53;;;3.20;99.90;;;;;;5027099;28;37618;-75
2021/01/05 06:40:06;;;;;;;12.77;9.57;;;3.30;99.90;;;;;;5027292;28;37390;-75
2021/01/05 06:42:32;;;;;;;13.00;9.63;;;3.20;99.90;;;;;;5028850;28;36005;-75
2021/01/05 06:44:58;;;;;;;14.90;9.60;;;3.30;99.90;;;;;;5031339;28;38061;-75
2021/01/05 06:47:24;;;;;;;16.33;10.40;;;3.20;99.90;;;;;;5027605;28;37355;-75
2021/01/05 06:49:51;;;;;;;17.47;10.60;;;3.30;99.90;;;;;;5047946;28;38142;-75
2021/01/05 06:52:17;;;;;;;17.03;10.07;;;3.20;99.90;;;;;;5045661;28;37337;-75
2021/01/05 06:54:43;;;;;;;14.77;10.33;;;3.20;99.90;;;;;;5032609;28;38996;-75
2021/01/05 06:57:09;;;;;;;16.80;10.73;;;3.20;99.90;;;;;;5047709;28;39156;-75
2021/01/05 06:59:36;;;;;;;16.60;10.40;;;3.30;99.90;;;;;;5048987;28;38059;-75
2021/01/05 07:02:06;;;;;;;17.30;11.40;;;3.30;99.90;;;;;;5023243;28;36640;-75
2021/01/05 07:04:33;;;;;;;16.57;10.80;;;3.30;99.90;;;;;;5030353;28;37827;-75
2021/01/05 07:07:00;;;;;;;17.63;10.83;;;3.30;99.90;;;;;;5024816;28;37654;-75
2021/01/05 07:09:28;;;;;;;18.83;10.57;;;3.30;99.90;;;;;;5044739;28;48233;-77
2021/01/05 07:11:54;;;;;;;17.73;11.37;;;3.20;99.90;;;;;;5047678;28;37166;-75
2021/01/05 07:14:22;;;;;;;19.00;11.90;;;3.20;99.90;;;;;;5047723;28;38719;-74
2021/01/05 07:16:49;;;;;;;18.83;11.83;;;3.20;99.90;;;;;;5045742;28;39172;-75
2021/01/05 07:19:15;;;;;;;17.20;11.97;;;3.20;99.90;;;;;;5034540;28;37199;-75
2021/01/05 07:21:42;;;;;;;19.40;12.07;;;3.20;99.90;;;;;;5039885;28;37547;-75
2021/01/05 07:24:09;;;;;;;20.53;11.90;;;3.20;99.90;;;;;;5046092;28;38585;-75
2021/01/05 07:26:36;;;;;;;18.63;11.00;;;3.20;99.90;;;;;;5029064;28;39381;-75
2021/01/05 07:29:03;;;;;;;20.43;10.93;;;3.20;99.90;;;;;;5043795;28;38196;-75
2021/01/05 07:31:29;;;;;;;16.63;11.23;;;3.20;99.90;;;;;;5028588;28;36542;-75
2021/01/05 07:33:55;;;;;;;16.37;11.13;;;3.20;99.90;;;;;;5022665;28;37727;-75
2021/01/05 07:36:26;;;;;;;16.80;11.20;;;3.20;99.90;;;;;;5040889;28;38866;-75
2021/01/05 07:38:53;;;;;;;16.77;12.00;;;3.30;99.90;;;;;;5041042;28;38454;-75
2021/01/05 07:41:19;;;;;;;19.97;12.53;;;3.20;99.90;;;;;;5029664;28;36248;-75
2021/01/05 07:43:46;;;;;;;16.37;11.90;;;3.20;99.90;;;;;;5027115;28;37950;-74
2021/01/05 07:46:12;;;;;;;18.27;11.50;;;3.20;99.90;;;;;;5039572;28;37565;-75
2021/01/05 07:48:39;;;;;;;17.27;11.57;;;3.20;99.90;;;;;;5022240;28;37793;-75
2021/01/05 07:51:12;;;;;;;18.17;11.50;;;3.20;99.90;;;;;;5044649;28;36816;-75
2021/01/05 07:53:38;;;;;;;19.00;12.07;;;3.20;99.90;;;;;;5040432;28;38563;-75
2021/01/05 07:56:04;;;;;;;18.03;12.63;;;3.20;99.90;;;;;;5003189;28;37758;-74
2021/01/05 07:58:30;;;;;;;21.37;12.60;;;3.30;99.90;;;;;;5038439;28;39054;-75
2021/01/05 08:00:56;;;;;;;19.23;11.80;;;3.20;99.90;;;;;;5003196;28;36473;-75
2021/01/05 08:03:22;;;;;;;18.47;12.53;;;3.30;99.90;;;;;;5032602;28;39860;-74
2021/01/05 08:05:48;;;;;;;19.03;13.00;;;3.20;99.90;;;;;;5045972;28;38526;-73
2021/01/05 08:08:15;;;;;;;18.70;11.63;;;3.20;99.90;;;;;;5025731;28;38482;-74
2021/01/05 08:10:41;;;;;;;18.80;13.10;;;3.30;99.90;;;;;;5025944;28;37243;-74
2021/01/05 08:13:11;;;;;;;18.80;11.90;;;3.30;99.90;;;;;;5040088;28;38929;-73
2021/01/05 08:15:38;;;;;;;18.53;12.37;;;3.20;99.90;;;;;;5030182;28;37351;-74
2021/01/05 08:18:06;;;;;;;19.23;11.83;;;3.30;99.90;;;;;;5037358;28;37054;-75
2021/01/05 08:20:33;;;;;;;19.77;13.20;;;3.30;99.90;;;;;;4998733;28;36420;-75
2021/01/05 08:23:01;;;;;;;21.00;13.17;;;3.30;99.90;;;;;;5044045;28;38954;-74
2021/01/05 08:25:30;;;;;;;20.50;13.53;;;3.30;99.90;;;;;;5023654;28;47129;-75
2021/01/05 08:27:56;;;;;;;19.63;13.20;;;3.30;99.90;;;;;;5021152;28;39021;-75
2021/01/05 08:30:24;;;;;;;22.37;13.30;;;3.30;99.90;;;;;;5050450;28;37203;-75
2021/01/05 08:32:52;;;;;;;21.13;13.77;;;3.30;99.90;;;;;;5035024;28;38393;-74
2021/01/05 08:35:20;;;;;;;22.73;14.27;;;3.30;99.90;;;;;;5037666;28;38660;-75
2021/01/05 08:37:46;;;;;;;17.70;12.57;;;3.30;99.90;;;;;;5044352;28;39423;-75
2021/01/05 08:40:17;;;;;;;20.93;13.77;;;3.30;99.90;;;;;;5046958;28;38373;-75
2021/01/05 08:42:44;;;;;;;22.13;14.20;;;3.30;99.90;;;;;;5043567;28;39783;-75
2021/01/05 08:45:10;;;;;;;21.70;13.50;;;3.30;99.90;;;;;;5026309;28;39943;-77
2021/01/05 08:47:36;;;;;;;17.87;12.53;;;3.30;99.90;;;;;;5022719;28;38246;-76
2021/01/05 08:50:05;;;;;;;21.03;13.73;;;3.40;99.90;;;;;;5025042;28;37280;-76
2021/01/05 08:52:31;;;;;;;19.93;13.37;;;3.40;99.90;;;;;;5042919;28;46877;-76
2021/01/05 08:54:57;;;;;;;20.03;13.47;;;3.40;99.90;;;;;;5026144;28;37314;-76
2021/01/05 08:57:23;;;;;;;19.57;12.70;;;3.50;99.90;;;;;;5038183;28;38020;-75
2021/01/05 08:59:49;;;;;;;17.67;12.17;;;3.50;99.90;;;;;;5026360;28;36993;-75
2021/01/05 09:02:16;;;;;;;17.67;11.83;;;3.50;99.90;;;;;;5019624;28;39910;-76
2021/01/05 09:04:42;;;;;;;19.27;13.07;;;3.50;99.90;;;;;;5047733;28;38526;-76
2021/01/05 09:07:09;;;;;;;16.03;11.97;;;3.60;99.90;;;;;;5031909;28;38269;-76
2021/01/05 09:09:35;;;;;;;18.37;12.50;;;3.60;99.90;;;;;;5043738;28;38155;-76
2021/01/05 09:12:02;;;;;;;16.90;12.23;;;3.60;99.90;;;;;;5043919;28;39807;-76
2021/01/05 09:14:28;;;;;;;18.47;12.70;;;3.60;99.90;;;;;;5028687;28;37584;-75
2021/01/05 09:16:59;;;;;;;18.17;12.17;;;3.60;99.90;;;;;;5038086;28;38743;-75
2021/01/05 09:19:29;;;;;;;20.03;13.00;;;3.60;99.90;;;;;;5021013;28;37914;-75
2021/01/05 09:21:56;;;;;;;22.53;13.30;;;3.70;99.90;;;;;;5041967;28;38699;-75
2021/01/05 09:24:22;;;;;;;19.03;13.00;;;3.70;99.90;;;;;;5034355;28;37401;-75
2021/01/05 09:26:56;;;;;;;17.90;12.53;;;3.70;99.90;;;;;;5023383;28;38164;-75
2021/01/05 09:29:24;;;;;;;18.73;12.67;;;3.70;99.90;;;;;;5025556;28;36430;-74
2021/01/05 09:31:51;;;;;;;21.03;14.07;;;3.70;99.90;;;;;;5046486;28;38078;-75
2021/01/05 09:34:20;;;;;;;19.20;13.27;;;3.80;99.90;;;;;;5042554;28;38411;-75
2021/01/05 09:36:47;;;;;;;18.73;12.97;;;3.80;99.90;;;;;;5026015;28;37555;-75
2021/01/05 09:39:16;;;;;;;18.40;12.23;;;3.80;99.90;;;;;;5036794;28;37494;-75
2021/01/05 09:41:46;;;;;;;18.43;12.83;;;3.80;99.90;;;;;;5042953;28;38913;-77
2021/01/05 09:44:13;;;;;;;18.90;12.93;;;3.80;99.90;;;;;;5023041;28;38872;-76
2021/01/05 09:46:39;;;;;;;18.77;13.37;;;3.80;99.90;;;;;;5031896;28;38921;-75
2021/01/05 09:49:14;;;;;;;20.53;13.83;;;3.90;99.90;;;;;;5025427;28;38048;-75
2021/01/05 09:51:40;;;;;;;17.83;13.00;;;3.90;99.90;;;;;;5027617;28;37898;-76
2021/01/05 09:54:07;;;;;;;17.53;12.60;;;3.90;99.90;;;;;;5041525;28;37273;-75
2021/01/05 09:56:33;;;;;;;17.73;12.47;;;3.90;99.90;;;;;;5029063;28;39178;-76
2021/01/05 09:58:59;;;;;;;17.23;12.53;;;4.00;99.90;;;;;;5041821;28;37309;-77
2021/01/05 10:01:28;;;;;;;20.40;13.20;;;4.00;99.90;;;;;;5025689;28;38770;-77
2021/01/05 10:03:54;;;;;;;18.80;13.20;;;4.00;99.90;;;;;;5026983;28;38661;-76
2021/01/05 10:06:22;;;;;;;17.47;12.63;;;3.90;99.90;;;;;;5020098;28;36813;-77
2021/01/05 10:08:48;;;;;;;20.53;13.50;;;3.90;99.90;;;;;;5019819;28;37797;-76
2021/01/05 10:11:14;;;;;;;18.17;13.13;;;3.90;99.90;;;;;;5040310;28;39712;-78
2021/01/05 10:13:40;;;;;;;18.37;13.43;;;4.00;99.90;;;;;;5039422;28;38401;-76
2021/01/05 10:16:06;;;;;;;24.97;15.03;;;3.90;99.90;;;;;;5025723;28;38269;-77
2021/01/05 10:18:32;;;;;;;20.30;14.07;;;3.90;99.90;;;;;;5039623;28;37088;-79
2021/01/05 10:20:58;;;;;;;20.63;13.40;;;3.90;99.90;;;;;;5040153;28;39034;-76
2021/01/05 10:23:24;;;;;;;23.50;13.93;;;3.90;99.90;;;;;;5019502;28;37233;-77
2021/01/05 10:25:51;;;;;;;22.67;13.77;;;3.80;99.90;;;;;;5021578;28;37295;-77
2021/01/05 10:28:17;;;;;;;19.77;14.07;;;3.80;99.90;;;;;;5043055;28;38397;-78
2021/01/05 10:30:43;;;;;;;20.33;13.97;;;3.90;99.90;;;;;;5036816;28;39124;-77
2021/01/05 10:33:09;;;;;;;19.70;13.77;;;4.00;99.90;;;;;;5040132;28;37762;-76
2021/01/05 10:35:36;;;;;;;21.67;14.67;;;4.00;99.90;;;;;;5041564;28;37105;-76
2021/01/05 10:38:02;;;;;;;18.30;13.57;;;4.00;99.90;;;;;;5043132;28;37105;-75
2021/01/05 10:40:28;;;;;;;19.27;13.30;;;4.00;99.90;;;;;;5043416;28;38813;-76
2021/01/05 10:42:54;;;;;;;19.90;13.37;;;4.00;99.90;;;;;;5042307;28;38473;-76
2021/01/05 10:45:23;;;;;;;21.87;12.97;;;4.00;99.90;;;;;;5018837;28;37614;-76
2021/01/05 10:47:49;;;;;;;19.30;13.23;;;4.10;99.90;;;;;;5038777;28;37186;-76
2021/01/05 10:50:19;;;;;;;19.90;13.27;;;4.10;99.90;;;;;;5022963;28;37873;-77
2021/01/05 10:52:46;;;;;;;19.87;13.27;;;4.10;99.90;;;;;;5041507;28;38365;-78
2021/01/05 10:55:14;;;;;;;19.83;13.87;;;4.10;99.90;;;;;;5043261;28;38271;-77
2021/01/05 10:57:40;;;;;;;18.73;13.47;;;4.10;99.90;;;;;;5025768;28;37887;-78
2021/01/05 11:00:07;;;;;;;20.73;13.67;;;4.10;99.90;;;;;;5041916;28;39555;-76
2021/01/05 11:02:34;;;;;;;21.90;13.60;;;4.10;99.90;;;;;;5029111;28;38707;-77
2021/01/05 11:05:00;;;;;;;19.67;12.80;;;4.20;99.90;;;;;;5043790;28;36940;-75
2021/01/05 11:07:27;;;;;;;21.47;12.63;;;4.20;99.90;;;;;;5023720;28;37356;-77
2021/01/05 11:09:53;;;;;;;16.47;11.40;;;4.30;99.90;;;;;;5024259;28;37813;-77
2021/01/05 11:12:21;;;;;;;16.47;11.93;;;4.40;99.90;;;;;;5022283;28;39637;-77
2021/01/05 11:14:48;;;;;;;14.73;10.10;;;4.40;99.90;;;;;;5044189;28;37040;-76
2021/01/05 11:17:15;;;;;;;14.87;10.07;;;4.50;99.90;;;;;;5040021;28;37464;-77
2021/01/05 11:19:42;;;;;;;13.73;9.83;;;4.50;99.90;;;;;;5044347;28;39558;-75
2021/01/05 11:22:14;;;;;;;18.97;10.40;;;4.50;99.90;;;;;;5040764;28;39114;-76
2021/01/05 11:24:41;;;;;;;13.97;10.17;;;4.50;99.90;;;;;;5039479;28;38024;-76
2021/01/05 11:27:08;;;;;;;13.87;10.40;;;4.60;99.90;;;;;;5027018;28;36630;-76
2021/01/05 11:29:35;;;;;;;15.13;10.43;;;4.60;99.90;;;;;;5044071;28;39938;-76
2021/01/05 11:32:03;;;;;;;13.40;9.87;;;4.70;99.90;;;;;;5038161;28;38417;-76
2021/01/05 11:34:30;;;;;;;14.57;9.90;;;4.60;99.90;;;;;;5021422;28;47156;-77
2021/01/05 11:37:04;;;;;;;14.10;9.73;;;4.70;99.90;;;;;;5029185;28;36109;-76
2021/01/05 11:39:31;;;;;;;13.83;10.37;;;4.60;99.90;;;;;;5036882;28;47276;-76
2021/01/05 11:41:59;;;;;;;15.80;10.17;;;4.60;99.90;;;;;;5013268;28;37301;-74
2021/01/05 11:44:25;;;;;;;15.90;10.20;;;4.50;99.90;;;;;;5042236;28;37872;-74
2021/01/05 11:46:51;;;;;;;18.67;10.80;;;4.60;99.90;;;;;;5031439;28;37509;-75
2021/01/05 11:49:18;;;;;;;16.57;10.73;;;4.50;99.90;;;;;;5043444;28;38995;-75
2021/01/05 11:51:44;;;;;;;14.53;10.67;;;4.60;99.90;;;;;;5032110;28;37351;-76
2021/01/05 11:54:10;;;;;;;15.20;10.80;;;4.70;99.90;;;;;;5042899;28;37842;-75
2021/01/05 11:56:37;;;;;;;13.53;10.03;;;4.60;99.90;;;;;;5044208;28;37648;-75
2021/01/05 11:59:04;;;;;;;12.20;9.53;;;4.60;99.90;;;;;;5040912;28;37989;-75
2021/01/05 12:01:37;;;;;;;13.27;9.57;;;4.60;99.90;;;;;;5042987;28;48241;-75
2021/01/05 12:04:05;;;;;;;13.53;9.87;;;4.60;99.90;;;;;;5026256;28;37929;-75
2021/01/05 12:06:31;;;;;;;13.30;9.47;;;4.60;99.90;;;;;;5040862;28;37099;-76
2021/01/05 12:08:57;;;;;;;12.80;9.33;;;4.60;99.90;;;;;;5027946;28;38253;-75
2021/01/05 12:11:29;;;;;;;12.80;10.10;;;4.60;99.90;;;;;;5028410;28;37894;-78
2021/01/05 12:13:56;;;;;;;17.33;8.95;;;4.50;99.90;;;;;;5043789;28;38010;-76
2021/01/05 12:16:29;;;;;;;13.83;10.17;;;4.60;99.90;;;;;;5022537;28;37384;-76
2021/01/05 12:18:57;;;;;;;13.00;9.27;;;4.60;99.90;;;;;;5043581;28;36498;-76
2021/01/05 12:21:32;;;;;;;13.30;10.10;;;4.60;99.90;;;;;;5027542;28;37640;-76
2021/01/05 12:23:58;;;;;;;13.13;9.27;;;4.70;99.90;;;;;;5047403;28;37630;-76
2021/01/05 12:26:36;;;;;;;12.40;9.40;;;4.70;99.90;;;;;;5043546;28;37043;-75
2021/01/05 12:29:13;;;;;;;13.53;9.37;;;4.70;99.90;;;;;;5025301;28;38317;-75
2021/01/05 12:31:51;;;;;;;12.60;9.70;;;4.60;99.90;;;;;;5034514;28;49280;-76
2021/01/05 12:34:21;;;;;;;13.33;9.10;;;4.60;99.90;;;;;;5044352;28;38065;-76
2021/01/05 12:36:48;;;;;;;14.90;9.97;;;4.60;99.90;;;;;;5041924;28;37086;-75
2021/01/05 12:39:20;;;;;;;12.30;9.00;;;4.50;99.90;;;;;;5042101;28;38526;-77
2021/01/05 12:41:46;;;;;;;;;;;4.50;99.90;;;;;;5028600;28;37921;-76
2021/01/05 12:44:19;;;;;;;14.33;9.03;;;4.50;99.90;;;;;;5036136;28;37175;-76
2021/01/05 12:46:46;;;;;;;13.23;9.23;;;4.50;99.90;;;;;;5042607;28;38295;-76
2021/01/05 12:49:14;;;;;;;15.23;9.23;;;4.50;99.90;;;;;;5026396;28;38527;-77
2021/01/05 12:51:43;;;;;;;11.97;8.97;;;4.50;99.90;;;;;;5024686;28;38045;-77
2021/01/05 12:54:16;;;;;;;15.93;8.20;;;4.40;99.90;;;;;;5030964;28;38222;-77
2021/01/05 12:56:42;;;;;;;13.13;7.77;;;4.40;99.90;;;;;;5046725;28;36947;-77
2021/01/05 12:59:10;;;;;;;12.23;7.93;;;4.30;99.90;;;;;;5048965;28;38200;-77
2021/01/05 13:01:36;;;;;;;10.30;7.23;;;4.30;99.90;;;;;;5043873;28;38222;-76
2021/01/05 13:04:02;;;;;;;10.13;7.43;;;4.30;99.90;;;;;;5026719;28;36928;-75
2021/01/05 13:06:31;;;;;;;9.57;6.60;;;4.30;99.90;;;;;;5033874;28;36437;-76